Ash Grove, Nebraska
Current Conditions -  °F | °C
As of 5:55 AM on Monday 22 Dec 2014 (Local Time) from KHDE Reporting Station
Overcast Overcast  
Wind Chill: 30°   Ceiling: 5000
Heat Index: 38°   Visibility: 10mi
Dew Point: 34°   Wind: 14mph
Humidity: 84%   Direction: 310°NW
Pressure: 29.53"   Gusts: NA
Location:  40.1734°N, 98.8989°W
Report Text: KHDE 221155Z AUTO 31012KT 10SM SCT043 OVC050 04/01 A2953 RMK AO2 T00350010 10041 20008
Loading
Personal Weather Stations






























Interactive Weather Map New forecast layout! Learn more

10-Day Weather Forecast

Advertisements
Track Severe Weather on mobile